createdAt,value
2019-06-27T00:00:19.875Z,56.56
2019-06-27T00:02:45.991Z,56.03
2019-06-27T00:05:12.189Z,56.41
2019-06-27T00:07:38.389Z,56.16
2019-06-27T00:10:05.315Z,56.46
2019-06-27T00:12:32.542Z,56.49
2019-06-27T00:14:58.559Z,58.04
2019-06-27T00:17:24.667Z,59.66
2019-06-27T00:19:50.857Z,59.02
2019-06-27T00:22:17.065Z,58.61
2019-06-27T00:24:43.247Z,58.03
2019-06-27T00:27:09.619Z,57.34
2019-06-27T00:29:35.663Z,57.48
2019-06-27T00:32:02.038Z,59.55
2019-06-27T00:34:28.194Z,57.20
2019-06-27T00:36:54.368Z,60.92
2019-06-27T00:39:20.382Z,58.62
2019-06-27T00:41:46.517Z,57.54
2019-06-27T00:44:12.580Z,56.24
2019-06-27T00:46:38.636Z,56.28
2019-06-27T00:49:04.661Z,61.03
2019-06-27T00:51:30.732Z,56.46
2019-06-27T00:53:56.745Z,56.09
2019-06-27T00:56:22.918Z,55.85
2019-06-27T00:58:48.971Z,55.62
2019-06-27T01:01:15.082Z,55.74
2019-06-27T01:03:41.118Z,55.36
2019-06-27T01:06:07.172Z,55.10
2019-06-27T01:08:33.183Z,56.92
2019-06-27T01:10:59.231Z,54.81
2019-06-27T01:13:25.356Z,53.76
2019-06-27T01:15:51.457Z,53.77
2019-06-27T01:18:17.576Z,56.93
2019-06-27T01:20:43.848Z,56.69
2019-06-27T01:23:10.399Z,56.04
2019-06-27T01:25:37.541Z,55.56
2019-06-27T01:28:03.717Z,55.10
2019-06-27T01:30:29.789Z,54.86
2019-06-27T01:32:55.904Z,55.29
2019-06-27T01:35:21.911Z,55.76
2019-06-27T01:37:48.037Z,56.80
2019-06-27T01:40:14.256Z,56.05
2019-06-27T01:42:40.539Z,56.53
2019-06-27T01:45:06.851Z,57.30
2019-06-27T01:47:35.044Z,57.30
2019-06-27T01:50:01.338Z,57.93
2019-06-27T01:52:27.850Z,55.05
2019-06-27T01:54:54.071Z,58.15
2019-06-27T01:57:20.225Z,58.30
2019-06-27T01:59:46.408Z,58.08
2019-06-27T02:02:13.730Z,59.08
2019-06-27T02:04:39.793Z,59.04
2019-06-27T02:07:05.959Z,60.08
2019-06-27T02:09:33.547Z,59.00
2019-06-27T02:11:59.951Z,58.41
2019-06-27T02:14:26.058Z,58.98
2019-06-27T02:16:52.104Z,59.17
2019-06-27T02:19:18.288Z,58.66
2019-06-27T02:21:45.562Z,57.91
2019-06-27T02:24:11.578Z,57.50
2019-06-27T02:26:37.778Z,57.38
2019-06-27T02:29:03.948Z,59.33
2019-06-27T02:31:30.253Z,59.76
2019-06-27T02:33:56.266Z,61.01
2019-06-27T02:36:22.312Z,60.45
2019-06-27T02:38:48.347Z,60.24
2019-06-27T02:41:14.504Z,59.99
2019-06-27T02:43:40.588Z,59.96
2019-06-27T02:46:06.727Z,60.13
2019-06-27T02:48:32.791Z,60.43
2019-06-27T02:50:58.978Z,61.37
2019-06-27T02:53:24.994Z,60.93
2019-06-27T02:55:51.040Z,60.40
2019-06-27T02:58:29.857Z,60.00
2019-06-27T03:00:45.025Z,60.06
2019-06-27T03:03:11.264Z,60.10
2019-06-27T03:05:37.572Z,60.45
2019-06-27T03:08:04.637Z,58.78
2019-06-27T03:10:31.681Z,59.01
2019-06-27T03:12:57.912Z,59.94
2019-06-27T03:15:23.923Z,60.02
2019-06-27T03:17:50.592Z,60.68
2019-06-27T03:20:16.727Z,62.43
2019-06-27T03:22:43.138Z,61.81
2019-06-27T03:25:09.341Z,61.32
2019-06-27T03:27:35.492Z,60.88
2019-06-27T03:30:03.009Z,61.00
2019-06-27T03:32:29.176Z,59.90
2019-06-27T03:34:55.637Z,60.96
2019-06-27T03:37:21.852Z,61.39
2019-06-27T03:39:48.109Z,62.86
2019-06-27T03:42:14.340Z,62.31
2019-06-27T03:44:40.341Z,61.85
2019-06-27T03:47:06.484Z,62.46
2019-06-27T03:49:32.539Z,62.76
2019-06-27T03:51:58.883Z,63.57
2019-06-27T03:54:24.963Z,63.65
2019-06-27T03:56:51.258Z,64.02
2019-06-27T03:59:17.381Z,64.88
2019-06-27T04:01:43.433Z,64.65
2019-06-27T04:04:09.450Z,64.61
2019-06-27T04:06:35.707Z,64.66
2019-06-27T04:09:02.161Z,63.20
2019-06-27T04:11:28.775Z,62.88
2019-06-27T04:13:54.961Z,62.29
2019-06-27T04:16:21.078Z,62.14
2019-06-27T04:18:47.327Z,61.11
2019-06-27T04:21:13.430Z,60.20
2019-06-27T04:23:39.483Z,59.32
2019-06-27T04:26:05.677Z,56.94
2019-06-27T04:28:31.732Z,53.54
2019-06-27T04:30:57.938Z,51.75
2019-06-27T04:33:24.328Z,50.27
2019-06-27T04:35:50.373Z,50.51
2019-06-27T04:38:16.438Z,49.37
2019-06-27T04:40:42.565Z,49.38
2019-06-27T04:43:08.625Z,49.12
2019-06-27T04:45:34.723Z,48.32
2019-06-27T04:48:00.955Z,48.19
2019-06-27T04:50:27.211Z,46.43
2019-06-27T04:53:00.198Z,46.02
2019-06-27T04:55:27.393Z,45.19
2019-06-27T04:57:53.530Z,44.39
2019-06-27T05:00:28.402Z,43.51
2019-06-27T05:02:55.167Z,44.40
2019-06-27T05:05:22.236Z,44.79
2019-06-27T05:07:48.336Z,46.18
2019-06-27T05:10:14.456Z,46.99
2019-06-27T05:12:40.499Z,46.87
2019-06-27T05:15:06.540Z,45.84
2019-06-27T05:17:33.958Z,46.50
2019-06-27T05:20:03.035Z,46.39
2019-06-27T05:22:28.178Z,46.08
2019-06-27T05:24:54.217Z,45.67
2019-06-27T05:27:20.417Z,43.56
2019-06-27T05:29:46.577Z,42.97
2019-06-27T05:32:12.776Z,42.16
2019-06-27T05:34:38.826Z,43.36
2019-06-27T05:37:04.880Z,42.92
2019-06-27T05:39:30.929Z,43.40
2019-06-27T05:41:57.651Z,41.61
2019-06-27T05:44:23.699Z,41.77
2019-06-27T05:46:49.719Z,41.39
2019-06-27T05:49:15.874Z,41.00
2019-06-27T05:51:41.928Z,40.91
2019-06-27T05:54:07.996Z,40.69
2019-06-27T05:56:34.006Z,40.98
2019-06-27T05:59:00.123Z,40.57
2019-06-27T06:01:26.194Z,41.84
2019-06-27T06:03:52.250Z,41.56
2019-06-27T06:06:18.256Z,39.78
2019-06-27T06:08:44.330Z,39.26
2019-06-27T06:11:10.350Z,39.22
2019-06-27T06:13:36.524Z,39.56
2019-06-27T06:16:02.637Z,40.09
2019-06-27T06:18:28.693Z,37.96
2019-06-27T06:20:54.816Z,38.65
2019-06-27T06:23:20.827Z,39.95
2019-06-27T06:25:46.974Z,37.75
2019-06-27T06:28:13.029Z,36.16
2019-06-27T06:30:44.222Z,37.34
2019-06-27T06:33:07.728Z,37.42
2019-06-27T06:35:33.874Z,38.88
2019-06-27T06:37:59.885Z,39.59
2019-06-27T06:40:26.080Z,39.62
2019-06-27T06:42:56.121Z,37.80
2019-06-27T06:45:20.367Z,37.96
2019-06-27T06:47:47.591Z,39.89
2019-06-27T06:50:14.037Z,40.86
2019-06-27T06:52:40.358Z,43.26
2019-06-27T06:55:06.709Z,43.60
2019-06-27T06:57:32.839Z,45.33
2019-06-27T06:59:58.975Z,45.85
2019-06-27T07:02:25.001Z,45.86
2019-06-27T07:04:51.363Z,43.84
2019-06-27T07:07:17.460Z,44.38
2019-06-27T07:09:43.622Z,46.12
2019-06-27T07:12:09.634Z,47.81
2019-06-27T07:14:35.691Z,45.81
2019-06-27T07:17:01.735Z,43.06
2019-06-27T07:19:28.804Z,43.58
2019-06-27T07:21:54.833Z,47.97
2019-06-27T07:24:20.895Z,46.97
2019-06-27T07:26:46.937Z,43.06
2019-06-27T07:29:12.963Z,44.32
2019-06-27T07:31:39.053Z,44.16
2019-06-27T07:34:05.335Z,44.51
2019-06-27T07:36:31.421Z,45.66
2019-06-27T07:38:57.515Z,45.39
2019-06-27T07:41:23.515Z,45.80
2019-06-27T07:43:49.536Z,43.66
2019-06-27T07:46:25.190Z,46.09
2019-06-27T07:48:43.565Z,44.85
2019-06-27T07:51:10.345Z,47.54
2019-06-27T07:53:36.826Z,44.48
2019-06-27T07:56:03.052Z,44.43
2019-06-27T07:58:29.113Z,44.30
2019-06-27T08:00:55.527Z,43.56
2019-06-27T08:03:21.597Z,41.90
2019-06-27T08:05:47.737Z,44.81
2019-06-27T08:08:14.969Z,41.84
2019-06-27T08:10:40.985Z,40.35
2019-06-27T08:13:07.043Z,42.90
2019-06-27T08:15:33.188Z,41.84
2019-06-27T08:18:00.334Z,42.40
2019-06-27T08:20:26.701Z,41.77
2019-06-27T08:22:53.135Z,40.84
2019-06-27T08:25:19.443Z,41.34
2019-06-27T08:27:45.606Z,44.53
2019-06-27T08:30:12.026Z,41.31
2019-06-27T08:32:38.074Z,44.15
2019-06-27T08:35:05.485Z,39.89
2019-06-27T08:37:32.552Z,40.14
2019-06-27T08:39:58.729Z,40.35
2019-06-27T08:42:24.739Z,43.06
2019-06-27T08:44:50.783Z,41.82
2019-06-27T08:47:16.989Z,44.09
2019-06-27T08:49:43.204Z,40.33
2019-06-27T08:52:09.253Z,40.07
2019-06-27T08:54:35.312Z,40.48
2019-06-27T08:57:01.409Z,40.83
2019-06-27T08:59:27.422Z,40.89
2019-06-27T09:02:07.287Z,40.26
2019-06-27T09:04:21.403Z,39.10
2019-06-27T09:06:48.639Z,41.52
2019-06-27T09:09:14.713Z,36.73
2019-06-27T09:11:40.788Z,38.79
2019-06-27T09:14:06.849Z,38.77
2019-06-27T09:16:32.853Z,35.72
2019-06-27T09:18:58.937Z,34.55
2019-06-27T09:21:25.117Z,35.61
2019-06-27T09:23:51.357Z,36.29
2019-06-27T09:26:17.576Z,34.75
2019-06-27T09:28:43.639Z,35.28
2019-06-27T09:31:09.651Z,36.55
2019-06-27T09:33:35.702Z,35.12
2019-06-27T09:36:02.160Z,30.54
2019-06-27T09:38:28.209Z,32.75
2019-06-27T09:40:54.370Z,37.11
2019-06-27T09:43:20.579Z,31.42
2019-06-27T09:45:46.624Z,29.96
2019-06-27T09:48:12.734Z,30.21
2019-06-27T09:50:38.831Z,30.25
2019-06-27T09:53:04.949Z,29.24
2019-06-27T09:55:31.011Z,29.69
2019-06-27T09:57:57.139Z,29.97
2019-06-27T10:00:23.718Z,29.17
2019-06-27T10:02:49.841Z,31.10
2019-06-27T10:05:16.093Z,30.30
2019-06-27T10:07:42.230Z,30.27
2019-06-27T10:10:08.937Z,32.04
2019-06-27T10:12:42.371Z,29.60
2019-06-27T10:15:06.877Z,28.80
2019-06-27T10:17:32.893Z,28.77
2019-06-27T10:19:59.063Z,31.42
2019-06-27T10:22:25.189Z,30.48
2019-06-27T10:24:51.236Z,31.95
2019-06-27T10:27:17.590Z,29.63
2019-06-27T10:29:43.639Z,31.44
2019-06-27T10:32:09.646Z,31.69
2019-06-27T10:34:35.691Z,30.61
2019-06-27T10:37:01.713Z,27.64
2019-06-27T10:39:27.757Z,26.83
2019-06-27T10:41:54.214Z,27.58
2019-06-27T10:44:20.532Z,27.03
2019-06-27T10:46:46.566Z,27.62
2019-06-27T10:49:12.566Z,29.51
2019-06-27T10:51:38.889Z,28.15
2019-06-27T10:54:04.900Z,25.70
2019-06-27T10:56:31.047Z,22.61
2019-06-27T10:58:57.087Z,26.65
2019-06-27T11:01:23.101Z,23.88
2019-06-27T11:03:49.174Z,24.33
2019-06-27T11:06:15.563Z,25.36
2019-06-27T11:08:42.767Z,25.02
2019-06-27T11:11:08.781Z,27.92
2019-06-27T11:13:34.900Z,28.49
2019-06-27T11:16:01.333Z,27.53
2019-06-27T11:18:27.358Z,27.27
2019-06-27T11:20:53.373Z,26.66
2019-06-27T11:23:19.513Z,25.74
2019-06-27T11:25:45.559Z,26.60
2019-06-27T11:28:11.598Z,27.96
2019-06-27T11:30:37.804Z,25.46
2019-06-27T11:33:04.022Z,27.91
2019-06-27T11:35:30.406Z,27.21
2019-06-27T11:37:56.413Z,26.52
2019-06-27T11:40:22.970Z,27.95
2019-06-27T11:42:49.790Z,27.07
2019-06-27T11:45:16.113Z,27.86
2019-06-27T11:47:42.131Z,25.26
2019-06-27T11:50:08.494Z,27.00
2019-06-27T11:52:34.533Z,27.26
2019-06-27T11:55:00.622Z,26.85
2019-06-27T11:57:26.841Z,26.50
2019-06-27T11:59:52.885Z,29.68
2019-06-27T12:02:18.901Z,26.80
2019-06-27T12:04:45.006Z,28.71
2019-06-27T12:07:11.071Z,26.37
2019-06-27T12:09:37.569Z,26.79
2019-06-27T12:12:04.702Z,26.64
2019-06-27T12:14:30.943Z,27.65
2019-06-27T12:16:57.272Z,25.84
2019-06-27T12:19:23.332Z,27.16
2019-06-27T12:21:49.425Z,29.59
2019-06-27T12:24:15.570Z,26.48
2019-06-27T12:26:41.580Z,27.01
2019-06-27T12:29:07.695Z,27.30
2019-06-27T12:31:33.812Z,29.35
2019-06-27T12:34:06.761Z,30.75
2019-06-27T12:36:27.895Z,28.55
2019-06-27T12:38:54.420Z,26.60
2019-06-27T12:41:20.549Z,26.85
2019-06-27T12:43:46.676Z,27.55
2019-06-27T12:46:12.950Z,28.18
2019-06-27T12:48:39.258Z,26.41
2019-06-27T12:51:05.623Z,28.52
2019-06-27T12:53:31.690Z,30.17
2019-06-27T12:55:57.940Z,27.06
2019-06-27T12:58:24.173Z,28.10
2019-06-27T13:00:50.188Z,28.51
2019-06-27T13:03:16.515Z,29.01
2019-06-27T13:05:42.693Z,27.18
2019-06-27T13:08:08.749Z,28.57
2019-06-27T13:10:36.186Z,27.67
2019-06-27T13:13:04.600Z,30.98
2019-06-27T13:15:32.661Z,30.44
2019-06-27T13:17:58.789Z,28.58
2019-06-27T13:20:25.504Z,28.02
2019-06-27T13:22:51.791Z,29.18
2019-06-27T13:25:17.951Z,30.71
2019-06-27T13:27:44.108Z,28.53
2019-06-27T13:30:10.457Z,29.78
2019-06-27T13:32:36.507Z,29.46
2019-06-27T13:35:04.218Z,31.38
2019-06-27T13:37:30.315Z,31.72
2019-06-27T13:39:56.467Z,31.91
2019-06-27T13:42:22.721Z,29.67
2019-06-27T13:44:48.958Z,31.45
2019-06-27T13:47:20.175Z,32.09
2019-06-27T13:49:45.551Z,31.19
2019-06-27T13:52:13.808Z,29.90
2019-06-27T13:54:39.934Z,30.92
2019-06-27T13:57:06.026Z,29.19
2019-06-27T13:59:33.140Z,29.97
2019-06-27T14:01:59.399Z,31.06
2019-06-27T14:04:25.490Z,29.91
2019-06-27T14:06:51.693Z,32.41
2019-06-27T14:09:23.348Z,32.52
2019-06-27T14:11:45.788Z,32.15
2019-06-27T14:14:12.075Z,30.82
2019-06-27T14:16:38.151Z,32.20
2019-06-27T14:19:04.656Z,30.81
2019-06-27T14:21:30.759Z,32.20
2019-06-27T14:23:56.827Z,29.56
2019-06-27T14:26:22.862Z,29.91
2019-06-27T14:28:48.946Z,31.25
2019-06-27T14:31:15.537Z,31.30
2019-06-27T14:33:41.609Z,29.58
2019-06-27T14:36:10.530Z,30.84
2019-06-27T14:38:39.493Z,32.23
2019-06-27T14:41:06.076Z,28.89
2019-06-27T14:43:32.099Z,29.92
2019-06-27T14:45:58.141Z,29.75
2019-06-27T14:48:24.185Z,30.07
2019-06-27T14:50:50.200Z,31.22
2019-06-27T14:53:16.241Z,32.20
2019-06-27T14:55:42.291Z,32.24
2019-06-27T14:58:09.508Z,31.24
2019-06-27T15:00:35.736Z,33.37
2019-06-27T15:03:01.965Z,31.53
2019-06-27T15:05:32.879Z,31.18
2019-06-27T15:07:56.037Z,31.73
2019-06-27T15:10:22.580Z,30.37
2019-06-27T15:12:56.855Z,34.02
2019-06-27T15:15:17.169Z,30.84
2019-06-27T15:17:43.314Z,32.27
2019-06-27T15:20:10.183Z,30.69
2019-06-27T15:22:37.699Z,29.12
2019-06-27T15:25:05.726Z,32.37
2019-06-27T15:27:31.909Z,32.29
2019-06-27T15:29:57.920Z,29.59
2019-06-27T15:32:24.017Z,31.71
2019-06-27T15:34:50.036Z,32.40
2019-06-27T15:37:16.290Z,31.90
2019-06-27T15:39:42.298Z,32.86
2019-06-27T15:42:08.340Z,34.34
2019-06-27T15:44:34.348Z,32.84
2019-06-27T15:47:00.416Z,30.43
2019-06-27T15:49:30.026Z,32.17
2019-06-27T15:51:54.355Z,30.82
2019-06-27T15:54:22.782Z,31.33
2019-06-27T15:56:48.970Z,32.73
2019-06-27T15:59:15.124Z,31.23
2019-06-27T16:01:41.241Z,32.90
2019-06-27T16:04:07.483Z,31.46
2019-06-27T16:06:33.512Z,31.34
2019-06-27T16:08:59.568Z,31.85
2019-06-27T16:11:25.714Z,35.15
2019-06-27T16:13:51.806Z,31.03
2019-06-27T16:16:17.926Z,33.78
2019-06-27T16:18:43.989Z,33.11
2019-06-27T16:21:10.026Z,31.94
2019-06-27T16:23:36.072Z,34.94
2019-06-27T16:26:02.121Z,30.47
2019-06-27T16:28:29.264Z,30.94
2019-06-27T16:30:55.481Z,34.21
2019-06-27T16:33:21.534Z,32.71
2019-06-27T16:35:47.614Z,32.74
2019-06-27T16:38:13.666Z,31.11
2019-06-27T16:40:39.830Z,34.10
2019-06-27T16:43:06.095Z,34.28
2019-06-27T16:45:32.335Z,35.05
2019-06-27T16:47:58.543Z,35.25
2019-06-27T16:50:24.660Z,34.69
2019-06-27T16:52:50.697Z,35.27
2019-06-27T16:55:17.115Z,33.98
2019-06-27T16:57:43.165Z,31.51
2019-06-27T17:00:09.777Z,32.38
2019-06-27T17:02:36.039Z,32.61
2019-06-27T17:05:04.296Z,35.42
2019-06-27T17:07:30.834Z,36.37
2019-06-27T17:09:56.871Z,35.08
2019-06-27T17:12:22.864Z,34.44
2019-06-27T17:14:48.922Z,34.29
2019-06-27T17:17:14.979Z,36.49
2019-06-27T17:19:41.277Z,36.40
2019-06-27T17:22:07.430Z,34.88
2019-06-27T17:24:33.435Z,38.14
2019-06-27T17:26:59.627Z,37.52
2019-06-27T17:29:25.983Z,36.68
2019-06-27T17:31:52.024Z,36.49
2019-06-27T17:34:18.203Z,36.83
2019-06-27T17:36:57.049Z,38.30
2019-06-27T17:39:12.623Z,37.38
2019-06-27T17:41:38.786Z,36.46
2019-06-27T17:44:04.911Z,37.64
2019-06-27T17:46:30.961Z,36.75
2019-06-27T17:48:57.345Z,36.91
2019-06-27T17:51:23.746Z,38.64
2019-06-27T17:53:49.770Z,37.96
2019-06-27T17:56:15.983Z,39.04
2019-06-27T17:58:42.492Z,40.21
2019-06-27T18:01:08.515Z,40.43
2019-06-27T18:03:34.575Z,40.10
2019-06-27T18:06:00.625Z,39.77
2019-06-27T18:08:26.770Z,40.48
2019-06-27T18:10:53.029Z,41.08
2019-06-27T18:13:19.056Z,41.12
2019-06-27T18:15:45.079Z,41.66
2019-06-27T18:18:11.131Z,43.38
2019-06-27T18:20:37.685Z,42.78
2019-06-27T18:23:04.808Z,41.05
2019-06-27T18:25:30.905Z,42.86
2019-06-27T18:27:56.959Z,42.12
2019-06-27T18:30:23.129Z,43.47
2019-06-27T18:32:49.150Z,42.62
2019-06-27T18:35:15.536Z,42.54
2019-06-27T18:37:41.598Z,43.70
2019-06-27T18:40:08.059Z,43.73
2019-06-27T18:42:34.149Z,43.44
2019-06-27T18:45:00.570Z,43.97
2019-06-27T18:47:26.879Z,44.27
2019-06-27T18:49:52.961Z,44.85
2019-06-27T18:52:19.379Z,47.29
2019-06-27T18:54:45.457Z,46.92
2019-06-27T18:57:11.585Z,45.77
2019-06-27T18:59:37.718Z,49.11
2019-06-27T19:02:04.110Z,46.84
2019-06-27T19:04:30.137Z,46.87
2019-06-27T19:06:56.193Z,46.74
2019-06-27T19:09:22.360Z,47.35
2019-06-27T19:11:48.766Z,47.63
2019-06-27T19:14:15.027Z,48.19
2019-06-27T19:16:41.333Z,48.38
2019-06-27T19:19:07.539Z,48.91
2019-06-27T19:21:33.586Z,49.36
2019-06-27T19:23:59.668Z,50.48
2019-06-27T19:26:25.770Z,50.16
2019-06-27T19:28:52.033Z,50.23
2019-06-27T19:31:18.096Z,50.82
2019-06-27T19:33:44.163Z,51.53
2019-06-27T19:36:10.287Z,51.33
2019-06-27T19:38:36.562Z,50.89
2019-06-27T19:41:03.756Z,51.13
2019-06-27T19:43:30.023Z,51.92
2019-06-27T19:45:56.355Z,52.21
2019-06-27T19:48:22.587Z,52.53
2019-06-27T19:50:48.690Z,52.25
2019-06-27T19:53:16.007Z,51.62
2019-06-27T19:55:42.504Z,51.71
2019-06-27T19:58:08.667Z,51.38
2019-06-27T20:00:34.734Z,51.51
2019-06-27T20:03:01.115Z,51.96
2019-06-27T20:05:27.182Z,51.92
2019-06-27T20:07:53.255Z,51.70
2019-06-27T20:10:19.577Z,53.24
2019-06-27T20:12:45.749Z,53.68
2019-06-27T20:15:12.341Z,53.85
2019-06-27T20:17:39.522Z,54.04
2019-06-27T20:20:05.873Z,52.84
2019-06-27T20:22:31.958Z,52.59
2019-06-27T20:24:58.084Z,53.32
2019-06-27T20:27:24.172Z,53.75
2019-06-27T20:29:50.256Z,54.36
2019-06-27T20:32:16.296Z,55.87
2019-06-27T20:34:42.309Z,56.14
2019-06-27T20:37:08.420Z,56.44
2019-06-27T20:39:34.465Z,57.66
2019-06-27T20:42:00.482Z,56.61
2019-06-27T20:44:26.522Z,56.31
2019-06-27T20:46:52.691Z,56.46
2019-06-27T20:49:18.892Z,56.58
2019-06-27T20:51:44.904Z,57.14
2019-06-27T20:54:12.347Z,57.63
2019-06-27T20:56:38.715Z,57.97
2019-06-27T20:59:04.768Z,58.67
2019-06-27T21:01:31.771Z,58.96
2019-06-27T21:03:58.240Z,59.42
2019-06-27T21:06:25.573Z,59.47
2019-06-27T21:08:52.148Z,59.86
2019-06-27T21:11:18.238Z,61.07
2019-06-27T21:13:45.319Z,61.17
2019-06-27T21:16:11.482Z,60.23
2019-06-27T21:18:37.550Z,60.08
2019-06-27T21:21:03.908Z,60.18
2019-06-27T21:23:30.024Z,60.25
2019-06-27T21:25:56.095Z,60.52
2019-06-27T21:28:22.250Z,60.22
2019-06-27T21:30:48.393Z,59.49
2019-06-27T21:33:14.671Z,59.60
2019-06-27T21:35:40.679Z,60.07
2019-06-27T21:38:06.725Z,60.38
2019-06-27T21:40:32.873Z,60.42
2019-06-27T21:42:58.917Z,59.99
2019-06-27T21:45:25.021Z,60.11
2019-06-27T21:47:51.069Z,59.51
2019-06-27T21:50:17.437Z,60.32
2019-06-27T21:52:43.678Z,60.29
2019-06-27T21:55:10.085Z,61.06
2019-06-27T21:57:36.226Z,61.67
2019-06-27T22:00:05.756Z,61.42
2019-06-27T22:02:33.707Z,61.30
2019-06-27T22:04:59.804Z,61.79
2019-06-27T22:07:25.863Z,61.73
2019-06-27T22:09:52.269Z,61.62
2019-06-27T22:12:18.737Z,61.76
2019-06-27T22:14:45.015Z,61.58
2019-06-27T22:17:14.978Z,61.88
2019-06-27T22:19:41.261Z,61.91
2019-06-27T22:22:07.452Z,62.30
2019-06-27T22:24:33.590Z,62.87
2019-06-27T22:27:00.734Z,63.11
2019-06-27T22:29:27.002Z,63.63
2019-06-27T22:31:53.179Z,63.48
2019-06-27T22:34:19.595Z,64.14
2019-06-27T22:36:46.029Z,64.33
2019-06-27T22:39:12.365Z,64.28
2019-06-27T22:41:38.380Z,64.50
2019-06-27T22:44:04.763Z,64.85
2019-06-27T22:46:30.787Z,64.62
2019-06-27T22:48:58.763Z,64.43
2019-06-27T22:51:24.862Z,63.58
2019-06-27T22:53:50.880Z,63.44
2019-06-27T22:56:17.037Z,63.88
2019-06-27T22:58:43.047Z,64.57
2019-06-27T23:01:09.098Z,63.70
2019-06-27T23:03:35.120Z,62.70
2019-06-27T23:06:01.355Z,63.26
2019-06-27T23:08:27.557Z,62.86
2019-06-27T23:10:53.596Z,63.02
2019-06-27T23:13:19.973Z,63.61
2019-06-27T23:15:46.027Z,63.55
2019-06-27T23:18:12.221Z,64.55
2019-06-27T23:20:38.377Z,65.39
2019-06-27T23:23:04.530Z,65.90
2019-06-27T23:25:30.541Z,65.14
2019-06-27T23:27:56.611Z,64.83
2019-06-27T23:30:22.703Z,65.73
2019-06-27T23:32:48.862Z,65.90
2019-06-27T23:35:15.084Z,66.06
2019-06-27T23:37:41.501Z,66.61
2019-06-27T23:40:13.841Z,66.52
2019-06-27T23:42:36.486Z,66.93
2019-06-27T23:45:03.850Z,67.40
2019-06-27T23:47:30.170Z,67.77
2019-06-27T23:49:56.187Z,66.12
2019-06-27T23:52:22.238Z,65.04
2019-06-27T23:54:48.377Z,64.46
2019-06-27T23:57:14.410Z,64.49
2019-06-27T23:59:40.432Z,63.55
